Time;durP1;ratioP1;P1;durP2;ratioP2;P2;SDS_P1;SDS_P2;PMS_P1;PMS_P2;Temp;Humidity;BMP_temperature;BMP_pressure;BME280_temperature;BME280_humidity;BME280_pressure;Samples;Min_cycle;Max_cycle;Signal;HPM_P1;HPM_P2
2022/06/06 00:00:13;;;;;;;7.78;2.58;;;20.10;99.90;;;;;;4811172;29;20234;-93
2022/06/06 00:02:39;;;;;;;15.07;2.75;;;20.10;99.90;;;;;;4805524;29;20039;-79
2022/06/06 00:05:06;;;;;;;6.30;2.42;;;19.60;99.90;;;;;;4801206;29;20491;-94
2022/06/06 00:07:34;;;;;;;7.47;2.05;;;20.10;99.90;;;;;;4820436;29;20536;-81
2022/06/06 00:10:00;;;;;;;10.68;2.85;;;21.10;99.90;;;;;;4814518;29;20041;-86
2022/06/06 00:12:27;;;;;;;11.18;3.17;;;20.20;99.90;;;;;;4811553;29;20070;-86
2022/06/06 00:14:53;;;;;;;13.27;2.90;;;20.20;99.90;;;;;;4803575;29;20056;-89
2022/06/06 00:17:19;;;;;;;7.82;2.70;;;20.10;99.90;;;;;;4809927;29;20055;-90
2022/06/06 00:19:48;;;;;;;6.70;2.45;;;20.10;99.90;;;;;;4816505;29;20027;-87
2022/06/06 00:22:18;;;;;;;13.50;3.05;;;20.10;99.90;;;;;;4815245;29;20063;-81
2022/06/06 00:24:48;;;;;;;12.23;2.92;;;20.10;99.90;;;;;;4815438;29;20037;-92
2022/06/06 00:27:17;;;;;;;11.00;3.03;;;20.40;99.90;;;;;;4815261;29;20031;-94
2022/06/06 00:29:43;;;;;;;10.05;2.60;;;20.40;99.90;;;;;;4800603;29;20049;-87
2022/06/06 00:34:54;;;;;;;6.00;2.05;;;20.60;99.90;;;;;;4819315;29;20629;-92
2022/06/06 00:37:32;;;;;;;7.75;2.88;;;20.50;99.90;;;;;;4819399;29;20030;-95
2022/06/06 00:40:04;;;;;;;9.77;3.13;;;20.20;99.90;;;;;;4818337;29;20023;-88
2022/06/06 00:42:44;;;;;;;8.60;2.47;;;20.20;99.90;;;;;;4836196;24;20066;-92
2022/06/06 00:48:39;;;;;;;8.07;4.07;;;19.90;99.90;;;;;;4755033;30;20310;-84
2022/06/06 00:51:17;;;;;;;9.07;2.60;;;19.90;99.90;;;;;;4755680;30;20040;-85
2022/06/06 00:53:55;;;;;;;10.23;2.38;;;19.80;99.90;;;;;;4757092;30;20044;-90
2022/06/06 00:56:29;;;;;;;7.25;2.50;;;20.50;99.90;;;;;;4761231;30;20035;-96
2022/06/06 00:59:19;;;;;;;6.50;2.35;;;20.60;99.90;;;;;;4764906;30;20032;-79
2022/06/06 01:02:10;;;;;;;12.07;3.03;;;20.90;99.90;;;;;;4758194;30;20059;-96
2022/06/06 01:04:42;;;;;;;7.90;1.95;;;20.90;98.80;;;;;;4754605;30;20044;-94
2022/06/06 01:07:10;;;;;;;11.70;3.40;;;21.20;99.40;;;;;;4756316;30;20058;-83
2022/06/06 01:09:38;;;;;;;6.95;2.67;;;21.20;98.40;;;;;;4755106;30;20591;-80
2022/06/06 01:12:13;;;;;;;8.52;2.45;;;21.40;98.30;;;;;;4738134;30;20056;-94
2022/06/06 01:15:12;;;;;;;9.23;3.10;;;21.50;99.00;;;;;;4743578;30;20028;-92
2022/06/06 01:18:12;;;;;;;7.82;2.60;;;21.70;98.10;;;;;;4703025;30;20060;-90
2022/06/06 01:21:14;;;;;;;13.13;2.90;;;21.90;98.10;;;;;;4704206;30;20505;-91
2022/06/06 01:24:01;;;;;;;5.82;2.30;;;21.70;97.10;;;;;;4703479;30;20042;-93
2022/06/06 01:26:58;;;;;;;11.70;3.08;;;21.10;97.80;;;;;;4752690;30;20032;-92
2022/06/06 01:29:37;;;;;;;8.85;2.58;;;20.60;98.40;;;;;;4755564;30;20069;-94
2022/06/06 01:32:22;;;;;;;8.77;2.65;;;20.40;99.10;;;;;;4757962;30;20106;-85
2022/06/06 01:34:55;;;;;;;14.80;2.72;;;20.40;99.90;;;;;;4758158;30;20037;-93
2022/06/06 01:37:41;;;;;;;13.88;2.90;;;20.00;99.50;;;;;;4764437;30;20400;-87
2022/06/06 01:40:14;;;;;;;8.95;2.20;;;20.10;99.90;;;;;;4763730;30;20078;-79
2022/06/06 01:42:53;;;;;;;;;;;20.10;99.30;;;;;;4757635;30;20086;-92
2022/06/06 01:45:40;;;;;;;7.50;1.80;;;20.00;99.50;;;;;;4742668;30;19978;-84
2022/06/06 01:48:30;;;;;;;9.38;1.92;;;19.60;99.90;;;;;;4757736;30;20044;-92
2022/06/06 01:51:06;;;;;;;9.45;2.15;;;19.90;99.90;;;;;;4755013;30;20229;-91
2022/06/06 01:53:46;;;;;;;9.82;4.05;;;19.80;99.90;;;;;;4778488;29;20698;-90
2022/06/06 01:56:17;;;;;;;9.95;2.22;;;20.00;99.90;;;;;;4813689;29;20173;-90
2022/06/06 01:58:43;;;;;;;6.65;2.20;;;20.30;99.40;;;;;;4813633;29;20042;-88
2022/06/06 02:01:13;;;;;;;13.65;3.22;;;20.10;99.90;;;;;;4813290;29;20027;-95
2022/06/06 02:03:41;;;;;;;6.97;1.67;;;20.40;99.70;;;;;;4817791;29;20050;-86
2022/06/06 02:06:06;;;;;;;8.13;2.25;;;19.70;99.90;;;;;;4808758;29;20023;-93
2022/06/06 02:08:32;;;;;;;11.20;2.53;;;19.60;99.90;;;;;;4812050;29;20104;-88
2022/06/06 02:10:59;;;;;;;10.50;2.72;;;19.90;99.90;;;;;;4820395;29;20034;-85
2022/06/06 02:13:26;;;;;;;8.90;2.22;;;19.90;99.90;;;;;;4821896;29;20035;-80
2022/06/06 02:15:52;;;;;;;9.90;2.13;;;19.90;99.90;;;;;;4812846;29;20031;-82
2022/06/06 02:18:18;;;;;;;7.03;1.90;;;20.00;99.40;;;;;;4825386;29;20038;-79
2022/06/06 02:20:45;;;;;;;10.27;2.33;;;19.60;99.90;;;;;;4811070;29;20113;-89
2022/06/06 02:23:12;;;;;;;12.68;2.70;;;22.50;99.90;;;;;;4812028;29;20058;-80
2022/06/06 02:25:38;;;;;;;7.03;2.38;;;19.50;99.90;;;;;;4803078;29;20042;-90
2022/06/06 02:28:07;;;;;;;9.35;2.78;;;16.40;99.90;;;;;;4799929;29;20027;-79
2022/06/06 02:30:41;;;;;;;8.32;2.05;;;19.40;99.90;;;;;;4796897;29;20035;-83
2022/06/06 02:33:06;;;;;;;;;;;20.60;99.90;;;;;;4796273;29;20031;-83
2022/06/06 02:35:35;;;;;;;9.57;2.78;;;19.60;99.90;;;;;;4797247;29;19909;-86
2022/06/06 02:38:02;;;;;;;7.05;2.22;;;19.90;99.90;;;;;;4794709;29;20035;-81
2022/06/06 02:40:30;;;;;;;10.10;1.88;;;20.40;99.80;;;;;;4795755;29;20030;-81
2022/06/06 02:42:56;;;;;;;6.07;2.00;;;20.40;99.90;;;;;;4794560;29;20090;-82
2022/06/06 02:45:22;;;;;;;6.63;2.08;;;20.60;99.90;;;;;;4795904;29;20034;-88
2022/06/06 02:47:51;;;;;;;6.07;2.00;;;20.70;97.30;;;;;;4794896;29;20051;-85
2022/06/06 02:50:19;;;;;;;10.18;2.10;;;21.10;98.70;;;;;;4795400;29;20077;-91
2022/06/06 02:52:45;;;;;;;9.57;1.70;;;21.00;98.00;;;;;;4795268;29;20073;-79
2022/06/06 02:55:12;;;;;;;7.90;2.67;;;21.30;98.10;;;;;;4808240;29;20035;-90
2022/06/06 02:57:42;;;;;;;11.18;2.15;;;21.30;96.60;;;;;;4794419;29;20077;-92
2022/06/06 03:00:11;;;;;;;12.25;2.40;;;21.00;97.00;;;;;;4794954;29;20587;-89
2022/06/06 03:02:37;;;;;;;8.93;2.17;;;20.70;99.10;;;;;;4794989;29;20063;-83
2022/06/06 03:05:03;;;;;;;7.75;2.80;;;21.20;97.90;;;;;;4794613;29;20507;-90
2022/06/06 03:07:46;;;;;;;11.82;2.75;;;21.30;96.90;;;;;;4795003;29;20030;-81
2022/06/06 03:10:45;;;;;;;12.20;2.20;;;21.10;97.50;;;;;;4794643;29;20391;-91
2022/06/06 03:13:14;;;;;;;7.78;2.17;;;21.30;97.50;;;;;;4794795;29;20535;-92
2022/06/06 03:22:29;;;;;;;5.53;1.58;;;21.20;98.10;;;;;;4795499;29;20072;-88
2022/06/06 03:25:05;;;;;;;5.80;1.85;;;20.60;97.00;;;;;;4812826;29;20031;-85
2022/06/06 03:27:39;;;;;;;8.88;2.42;;;20.40;97.90;;;;;;4800847;29;20023;-90
2022/06/06 03:30:24;;;;;;;6.53;2.38;;;20.20;97.00;;;;;;4798439;29;20119;-82
2022/06/06 03:32:50;;;;;;;6.10;1.98;;;19.70;97.80;;;;;;4799738;29;20107;-88
2022/06/06 03:35:22;;;;;;;10.43;2.30;;;20.00;98.90;;;;;;4796896;29;20023;-91
2022/06/06 03:38:21;;;;;;;8.18;2.30;;;20.10;97.40;;;;;;4796421;29;20572;-87
2022/06/06 03:41:06;;;;;;;10.68;2.50;;;20.40;98.10;;;;;;4799480;29;20141;-92
2022/06/06 03:44:09;;;;;;;7.55;2.00;;;20.00;97.80;;;;;;4805717;29;20046;-86
2022/06/06 03:46:50;;;;;;;8.45;2.33;;;19.60;98.80;;;;;;4802844;29;20039;-82
2022/06/06 03:49:53;;;;;;;8.90;2.75;;;19.30;98.70;;;;;;4814657;29;20037;-82
2022/06/06 03:52:29;;;;;;;7.90;1.90;;;19.20;99.90;;;;;;4799934;29;20055;-81
2022/06/06 03:55:13;;;;;;;8.48;1.95;;;19.40;99.90;;;;;;4808565;29;20259;-96
2022/06/06 03:57:46;;;;;;;6.53;2.20;;;19.00;99.50;;;;;;4804106;29;20110;-80
2022/06/06 04:00:14;;;;;;;;;;;19.10;99.20;;;;;;4803739;29;20054;-87
2022/06/06 04:02:42;;;;;;;15.32;2.75;;;18.90;99.10;;;;;;4802585;29;19909;-87
2022/06/06 04:05:12;;;;;;;8.82;2.20;;;19.40;99.00;;;;;;4803153;29;20514;-88
2022/06/06 04:07:43;;;;;;;7.00;2.20;;;19.50;98.70;;;;;;4801857;29;20031;-80
2022/06/06 04:10:09;;;;;;;5.72;1.92;;;19.50;98.60;;;;;;4799519;29;20338;-85
2022/06/06 04:13:12;;;;;;;13.07;2.92;;;19.70;99.80;;;;;;4799094;29;20027;-87
2022/06/06 04:16:04;;;;;;;12.80;2.50;;;19.50;98.10;;;;;;4799078;29;20130;-81
2022/06/06 04:18:50;;;;;;;11.18;2.55;;;19.10;98.70;;;;;;4793636;29;20088;-80
2022/06/06 04:21:52;;;;;;;6.43;1.73;;;19.40;99.90;;;;;;4793676;29;20609;-80
2022/06/06 04:24:53;;;;;;;10.02;1.98;;;20.20;99.00;;;;;;4807943;29;20031;-87
2022/06/06 04:27:27;;;;;;;6.53;1.90;;;20.90;98.20;;;;;;4794575;29;20073;-90
2022/06/06 04:30:05;;;;;;;8.77;1.65;;;20.60;96.50;;;;;;4793856;29;20027;-81
2022/06/06 04:32:49;;;;;;;5.00;1.70;;;20.80;96.90;;;;;;4792734;29;20549;-91
2022/06/06 04:35:37;;;;;;;12.32;2.67;;;20.60;95.60;;;;;;4793793;29;20038;-89
2022/06/06 04:38:19;;;;;;;7.97;1.92;;;17.20;95.50;;;;;;4793982;29;20023;-88
2022/06/06 04:41:13;;;;;;;3.60;1.30;;;20.40;97.40;;;;;;4793846;29;20031;-89
2022/06/06 04:43:38;;;;;;;;;;;20.70;98.00;;;;;;4792350;29;20069;-90
2022/06/06 04:46:37;;;;;;;6.18;1.85;;;21.70;97.00;;;;;;4793672;29;19909;-94
2022/06/06 04:49:10;;;;;;;8.07;1.70;;;21.70;96.30;;;;;;4794376;29;20027;-94
2022/06/06 04:51:38;;;;;;;6.22;1.98;;;22.10;95.90;;;;;;4794363;29;20553;-87
2022/06/06 04:54:05;;;;;;;6.80;2.30;;;22.40;95.00;;;;;;4808103;29;20124;-95
2022/06/06 04:56:33;;;;;;;8.80;1.90;;;22.50;93.90;;;;;;4795162;29;20035;-86
2022/06/06 04:59:01;;;;;;;9.65;2.38;;;22.70;94.20;;;;;;4794630;29;20023;-88
2022/06/06 05:01:28;;;;;;;20.10;7.13;;;22.70;93.20;;;;;;4793880;29;20031;-91
2022/06/06 05:03:54;;;;;;;29.40;11.82;;;22.30;92.60;;;;;;4793841;29;20343;-82
2022/06/06 05:06:55;;;;;;;23.27;7.65;;;21.70;93.80;;;;;;4793358;29;20530;-94
2022/06/06 05:09:59;;;;;;;16.52;3.90;;;21.60;93.90;;;;;;4792100;29;20553;-91
2022/06/06 05:12:58;;;;;;;8.38;2.88;;;21.70;94.20;;;;;;4755525;30;20252;-89
2022/06/06 05:16:08;;;;;;;13.52;2.95;;;22.10;95.10;;;;;;4806537;24;20373;-85
2022/06/06 05:19:06;;;;;;;11.75;2.45;;;22.60;94.60;;;;;;4828246;29;20032;-96
2022/06/06 05:24:23;;;;;;;11.55;2.17;;;22.80;93.80;;;;;;4977706;24;20295;-94
2022/06/06 05:26:52;;;;;;;12.18;3.03;;;22.90;93.70;;;;;;4820348;29;20022;-88
2022/06/06 05:29:27;;;;;;;11.13;2.72;;;23.20;93.20;;;;;;4814373;29;20243;-95
2022/06/06 05:32:16;;;;;;;10.50;2.88;;;23.50;92.70;;;;;;4813882;29;20518;-95
2022/06/06 05:35:03;;;;;;;10.35;2.92;;;23.60;92.30;;;;;;4812011;29;20022;-95
2022/06/06 05:38:14;;;;;;;13.57;2.75;;;23.80;91.90;;;;;;4812873;29;20031;-89
2022/06/06 05:40:48;;;;;;;8.85;2.80;;;23.90;91.90;;;;;;4731433;30;20325;-96
2022/06/06 05:43:33;;;;;;;11.88;2.55;;;23.90;91.60;;;;;;4755966;30;20036;-93
2022/06/06 05:46:07;;;;;;;10.60;2.78;;;23.90;91.70;;;;;;4749807;30;20063;-92
2022/06/06 05:49:00;;;;;;;8.85;3.17;;;23.90;91.70;;;;;;4752342;30;20036;-93
2022/06/06 05:51:52;;;;;;;8.50;2.57;;;24.10;91.50;;;;;;4748281;30;20139;-94
2022/06/06 05:54:36;;;;;;;9.25;2.80;;;24.10;90.80;;;;;;4740906;30;20048;-96
2022/06/06 05:57:26;;;;;;;6.43;1.95;;;23.90;91.50;;;;;;4763222;30;20036;-88
2022/06/06 06:00:06;;;;;;;8.82;2.72;;;24.00;91.60;;;;;;4754459;30;20114;-91
2022/06/06 06:03:11;;;;;;;5.85;2.20;;;24.00;91.50;;;;;;4798352;24;20063;-95
2022/06/06 06:06:18;;;;;;;11.60;2.72;;;24.70;91.60;;;;;;4819868;29;20091;-86
2022/06/06 06:09:15;;;;;;;9.90;2.80;;;24.40;91.20;;;;;;4851337;24;20027;-88
2022/06/06 06:11:46;;;;;;;8.68;2.85;;;25.80;91.30;;;;;;4805519;29;20439;-95
2022/06/06 06:15:06;;;;;;;11.25;3.22;;;24.50;91.10;;;;;;4798842;29;20035;-96
2022/06/06 06:17:35;;;;;;;8.95;2.30;;;22.40;90.10;;;;;;4788924;29;20031;-96
2022/06/06 06:20:10;;;;;;;7.75;2.42;;;24.80;90.60;;;;;;4785179;29;20031;-95
2022/06/06 06:22:43;;;;;;;10.07;3.33;;;24.70;90.30;;;;;;4777821;29;20323;-82
2022/06/06 06:25:10;;;;;;;8.80;2.65;;;24.50;90.40;;;;;;4793015;29;20067;-83
2022/06/06 06:27:36;;;;;;;10.30;2.63;;;24.70;89.60;;;;;;4886276;24;20058;-85
2022/06/06 06:30:08;;;;;;;7.88;2.85;;;24.80;90.50;;;;;;4831127;29;20035;-93
2022/06/06 06:33:13;;;;;;;9.82;2.88;;;24.60;88.80;;;;;;4827913;29;20034;-94
2022/06/06 06:35:48;;;;;;;;;;;24.70;90.10;;;;;;4774832;30;20052;-84
2022/06/06 06:39:07;;;;;;;13.73;2.72;;;24.70;89.30;;;;;;4759003;30;19917;-95
2022/06/06 06:42:19;;;;;;;6.20;2.40;;;24.90;89.60;;;;;;4775122;30;20603;-78
2022/06/06 06:45:08;;;;;;;9.57;3.42;;;24.90;89.30;;;;;;4720382;30;20148;-95
2022/06/06 06:47:36;;;;;;;11.95;2.88;;;25.10;88.80;;;;;;4723760;30;20044;-85
2022/06/06 06:50:10;;;;;;;8.85;2.42;;;25.20;88.00;;;;;;4724530;30;20053;-95
2022/06/06 06:53:05;;;;;;;10.07;3.72;;;25.30;87.70;;;;;;4702390;30;20041;-94
2022/06/06 06:55:48;;;;;;;11.88;2.95;;;25.40;87.40;;;;;;4666332;30;20572;-80
2022/06/06 06:58:19;;;;;;;;;;;25.30;87.10;;;;;;4658578;30;20066;-96
2022/06/06 07:00:45;;;;;;;10.80;2.88;;;25.40;87.10;;;;;;4656714;30;19923;-89
2022/06/06 07:09:31;;;;;;;12.32;3.58;;;25.70;86.90;;;;;;4661152;30;20037;-90
2022/06/06 07:12:24;;;;;;;9.75;3.20;;;25.70;88.20;;;;;;4652481;30;20045;-95
2022/06/06 07:15:20;;;;;;;14.20;3.92;;;25.90;88.10;;;;;;4681513;30;20037;-83
2022/06/06 07:21:10;;;;;;;11.10;3.17;;;25.90;86.30;;;;;;4823796;29;20061;-96
2022/06/06 07:23:58;;;;;;;6.10;2.65;;;26.10;85.10;;;;;;5049579;24;20062;-86
2022/06/06 07:26:27;;;;;;;11.57;3.20;;;26.30;85.80;;;;;;4819850;29;20094;-94
2022/06/06 07:28:53;;;;;;;10.35;3.17;;;26.30;85.10;;;;;;4819851;29;20026;-88
2022/06/06 07:31:40;;;;;;;9.27;3.17;;;25.70;83.60;;;;;;4815165;29;20047;-82
2022/06/06 07:34:30;;;;;;;9.93;3.13;;;26.70;83.60;;;;;;4815446;29;20628;-81
2022/06/06 07:37:11;;;;;;;11.57;2.80;;;26.90;82.70;;;;;;4818373;29;20023;-91
2022/06/06 07:39:48;;;;;;;11.05;3.17;;;26.90;81.30;;;;;;4829471;29;20033;-91
2022/06/06 07:42:48;;;;;;;11.57;3.75;;;27.00;81.40;;;;;;4813330;29;20034;-89
2022/06/06 07:45:19;;;;;;;12.23;3.25;;;27.00;81.00;;;;;;4814421;29;20031;-89
2022/06/06 07:48:32;;;;;;;14.40;3.20;;;27.00;79.90;;;;;;4832386;29;20623;-81
2022/06/06 07:51:22;;;;;;;9.43;3.60;;;27.00;80.00;;;;;;4676352;30;20137;-87
2022/06/06 07:54:25;;;;;;;10.63;3.47;;;27.10;79.80;;;;;;4691326;30;20121;-94
2022/06/06 08:00:36;;;;;;;10.90;4.18;;;28.30;79.20;;;;;;4823141;29;20541;-89
2022/06/06 08:03:38;;;;;;;13.95;3.30;;;27.40;78.40;;;;;;4885370;24;20058;-94
2022/06/06 08:06:33;;;;;;;10.45;3.30;;;26.90;78.10;;;;;;4813969;29;20105;-85
2022/06/06 08:09:28;;;;;;;13.05;3.75;;;27.70;76.80;;;;;;4809395;29;20030;-84
2022/06/06 08:12:10;;;;;;;12.98;2.88;;;27.90;76.00;;;;;;4813885;29;20126;-94
2022/06/06 08:14:58;;;;;;;15.63;3.83;;;28.10;75.00;;;;;;4816253;29;20029;-83
2022/06/06 08:17:34;;;;;;;11.23;3.22;;;28.20;73.70;;;;;;4819264;29;20061;-81
2022/06/06 08:20:18;;;;;;;15.55;3.88;;;27.80;73.70;;;;;;4825147;29;20025;-82
2022/06/06 08:22:50;;;;;;;15.43;4.32;;;28.40;74.50;;;;;;4825199;29;20063;-94
2022/06/06 08:25:17;;;;;;;12.30;3.53;;;28.50;74.10;;;;;;4824266;29;20066;-81
2022/06/06 08:27:50;;;;;;;11.07;3.20;;;28.60;73.40;;;;;;4826176;29;20082;-83
2022/06/06 08:30:17;;;;;;;9.63;2.63;;;28.60;72.50;;;;;;4824354;29;20034;-84
2022/06/06 08:32:43;;;;;;;48.00;34.22;;;28.50;72.00;;;;;;4821039;29;20038;-83
2022/06/06 08:35:09;;;;;;;11.93;5.43;;;28.30;73.20;;;;;;4816276;29;20099;-85
2022/06/06 08:38:00;;;;;;;9.73;3.15;;;28.20;72.30;;;;;;4818521;29;20050;-90
2022/06/06 08:41:03;;;;;;;12.15;6.18;;;28.10;74.30;;;;;;4813949;29;20035;-96
2022/06/06 08:43:34;;;;;;;7.88;2.95;;;28.20;73.80;;;;;;4816300;29;20654;-93
2022/06/06 08:46:28;;;;;;;12.23;3.97;;;28.40;73.30;;;;;;4813744;29;20060;-87
2022/06/06 08:49:10;;;;;;;;;;;28.60;72.20;;;;;;4813334;29;20027;-86
2022/06/06 08:51:52;;;;;;;12.10;4.70;;;28.70;72.30;;;;;;4813828;29;19916;-94
2022/06/06 08:54:39;;;;;;;11.13;3.90;;;29.10;70.40;;;;;;4816123;29;20026;-89
2022/06/06 08:57:59;;;;;;;11.68;4.85;;;29.30;70.80;;;;;;4773487;24;1895503;-96
2022/06/06 09:00:38;;;;;;;9.65;2.83;;;29.20;68.70;;;;;;4781606;30;20606;-93
2022/06/06 09:03:38;;;;;;;12.90;2.80;;;29.30;65.70;;;;;;4759465;30;20044;-96
2022/06/06 09:06:19;;;;;;;7.72;2.47;;;29.50;64.70;;;;;;4743837;30;20059;-82
2022/06/06 09:09:11;;;;;;;11.20;2.78;;;29.80;63.20;;;;;;4756777;30;20040;-82
2022/06/06 09:14:40;;;;;;;9.73;2.33;;;29.80;59.10;;;;;;4817732;24;20133;-87
2022/06/06 09:17:12;;;;;;;8.20;2.65;;;29.90;60.50;;;;;;4982547;24;20774;-96
2022/06/06 09:20:09;;;;;;;9.68;2.60;;;29.90;60.10;;;;;;4812885;29;20032;-93
2022/06/06 09:23:12;;;;;;;10.00;3.30;;;29.30;60.40;;;;;;4815257;29;20035;-96
2022/06/06 09:29:41;;;;;;;9.57;2.47;;;30.60;61.80;;;;;;2348143;24;20454;-79
2022/06/06 09:32:37;;;;;;;10.68;2.08;;;29.10;62.00;;;;;;4823695;29;20051;-92
2022/06/06 09:35:39;;;;;;;15.57;2.90;;;28.60;63.30;;;;;;4807648;29;20046;-80
2022/06/06 09:38:51;;;;;;;8.88;2.70;;;28.70;64.50;;;;;;4819046;24;20117;-94
2022/06/06 09:41:51;;;;;;;8.40;2.63;;;30.50;65.80;;;;;;4822550;29;20286;-89
2022/06/06 09:45:01;;;;;;;15.50;2.78;;;29.70;64.90;;;;;;4843870;29;20034;-90
2022/06/06 09:48:15;;;;;;;10.57;3.45;;;27.00;64.90;;;;;;4823949;29;20094;-84
2022/06/06 09:51:15;;;;;;;;;;;28.50;67.30;;;;;;4845109;29;20044;-95
2022/06/06 10:14:55;;;;;;;11.93;3.95;;;28.80;70.30;;;;;;4808708;29;20059;-89
2022/06/06 10:20:17;;;;;;;14.02;4.68;;;29.20;69.50;;;;;;4815709;29;20054;-80
2022/06/06 10:26:29;;;;;;;11.00;3.20;;;29.40;70.50;;;;;;4814815;29;20594;-79
2022/06/06 10:33:13;;;;;;;8.60;3.47;;;29.60;68.80;;;;;;4812273;29;20139;-85
2022/06/06 10:41:18;;;;;;;9.98;3.50;;;29.80;69.50;;;;;;4814562;29;20043;-96
2022/06/06 10:44:17;;;;;;;9.50;3.05;;;31.60;70.60;;;;;;4791661;29;20034;-82
2022/06/06 10:49:39;;;;;;;13.77;3.65;;;30.10;67.50;;;;;;4833297;24;20111;-83
2022/06/06 11:08:15;;;;;;;10.52;4.03;;;30.30;68.90;;;;;;5033436;24;20077;-92
2022/06/06 11:10:41;;;;;;;;;;;30.30;69.70;;;;;;4816580;29;20039;-78
2022/06/06 11:13:57;;;;;;;13.02;5.25;;;30.40;69.50;;;;;;4817087;29;20513;-85
2022/06/06 11:16:54;;;;;;;11.45;4.18;;;31.00;69.30;;;;;;4798466;29;20114;-81
2022/06/06 11:19:57;;;;;;;9.13;4.53;;;30.50;69.10;;;;;;4806344;29;20029;-85
2022/06/06 11:23:16;;;;;;;11.27;4.10;;;31.00;68.80;;;;;;4826676;29;20029;-88
2022/06/06 11:26:31;;;;;;;12.02;5.05;;;32.30;68.80;;;;;;4868088;24;20115;-86
2022/06/06 11:29:43;;;;;;;11.45;5.07;;;29.80;66.70;;;;;;4821544;29;20037;-86
2022/06/06 11:32:46;;;;;;;11.60;4.95;;;31.00;67.40;;;;;;4802214;29;20035;-87
2022/06/06 11:36:08;;;;;;;12.10;4.80;;;31.90;67.20;;;;;;4800227;29;20321;-85
2022/06/06 11:45:55;;;;;;;12.75;5.80;;;31.80;64.40;;;;;;4812961;29;20077;-89
2022/06/06 11:48:52;;;;;;;13.45;6.55;;;31.70;62.10;;;;;;4812359;29;20105;-89
2022/06/06 11:51:46;;;;;;;16.05;6.05;;;31.60;62.60;;;;;;4811494;29;20046;-78
2022/06/06 11:54:31;;;;;;;14.90;6.68;;;31.40;64.00;;;;;;4812307;29;20514;-81
2022/06/06 11:56:59;;;;;;;16.23;5.95;;;31.70;63.20;;;;;;4811867;29;20494;-84
2022/06/06 12:00:04;;;;;;;13.57;5.93;;;32.20;63.10;;;;;;4810698;29;20028;-87
2022/06/06 12:03:11;;;;;;;13.80;5.82;;;31.90;59.90;;;;;;4778610;29;20026;-90
2022/06/06 12:05:56;;;;;;;9.50;5.53;;;33.20;60.10;;;;;;4778798;29;20034;-81
2022/06/06 12:08:40;;;;;;;13.50;6.25;;;33.20;60.20;;;;;;4778910;29;20027;-81
2022/06/06 12:11:28;;;;;;;12.48;5.75;;;34.00;59.00;;;;;;4794042;29;20683;-90
2022/06/06 12:14:32;;;;;;;11.20;4.78;;;34.70;56.90;;;;;;4793350;29;20590;-90
2022/06/06 12:17:41;;;;;;;14.90;5.50;;;35.30;56.00;;;;;;4794748;29;20106;-90
2022/06/06 12:20:40;;;;;;;13.98;7.03;;;35.70;55.60;;;;;;4794051;29;20106;-81
2022/06/06 12:24:06;;;;;;;11.75;6.20;;;37.50;55.40;;;;;;4793129;29;20045;-82
2022/06/06 12:27:15;;;;;;;10.82;6.05;;;32.90;51.50;;;;;;4820008;24;20066;-88
2022/06/06 12:29:59;;;;;;;10.70;5.05;;;36.30;54.40;;;;;;4895765;24;20066;-80
2022/06/06 12:32:41;;;;;;;14.00;5.40;;;36.00;54.60;;;;;;4810939;29;20070;-82
2022/06/06 12:35:29;;;;;;;11.55;4.90;;;36.00;53.10;;;;;;4795961;29;20018;-89
2022/06/06 12:38:30;;;;;;;10.13;5.20;;;36.50;52.60;;;;;;4812621;29;20431;-86
2022/06/06 12:47:03;;;;;;;9.85;5.00;;;36.70;52.50;;;;;;4979195;24;20101;-83
2022/06/06 12:49:46;;;;;;;12.15;5.35;;;34.30;50.50;;;;;;4811559;29;20062;-89
2022/06/06 12:52:18;;;;;;;16.45;5.50;;;36.00;49.40;;;;;;4811441;29;20038;-84
2022/06/06 12:58:15;;;;;;;9.68;5.93;;;37.90;50.00;;;;;;4719676;30;20036;-89
2022/06/06 13:06:43;;;;;;;9.27;5.28;;;38.40;49.00;;;;;;4815983;24;20581;-89
2022/06/06 13:09:12;;;;;;;12.15;6.03;;;38.70;48.30;;;;;;4794693;29;20041;-83
2022/06/06 13:12:11;;;;;;;11.27;6.40;;;36.40;49.90;;;;;;4811121;29;20038;-85
2022/06/06 13:15:16;;;;;;;15.43;7.63;;;35.90;51.90;;;;;;4793822;29;20035;-81
2022/06/06 13:17:57;;;;;;;30.73;14.88;;;35.80;52.50;;;;;;4719967;30;20106;-89
2022/06/06 13:20:40;;;;;;;26.33;11.65;;;34.40;54.40;;;;;;4718648;30;20120;-81
2022/06/06 13:23:30;;;;;;;27.17;13.13;;;33.80;55.20;;;;;;4719773;30;20047;-86
2022/06/06 13:26:26;;;;;;;35.92;16.20;;;33.20;57.10;;;;;;4719376;30;20786;-88
2022/06/06 13:28:55;;;;;;;20.10;9.38;;;32.30;58.10;;;;;;4719144;30;20484;-84
2022/06/06 13:31:37;;;;;;;11.48;6.68;;;31.60;59.40;;;;;;4704473;30;20045;-80
2022/06/06 13:35:03;;;;;;;13.75;7.20;;;31.20;60.90;;;;;;4719244;30;20140;-89
2022/06/06 13:38:11;;;;;;;13.35;6.63;;;31.00;60.40;;;;;;4701707;30;20128;-84
2022/06/06 13:41:17;;;;;;;14.65;8.93;;;30.60;61.40;;;;;;4702088;30;20035;-83
2022/06/06 13:44:24;;;;;;;13.70;7.22;;;31.10;63.10;;;;;;4703418;30;20568;-85
2022/06/06 13:47:26;;;;;;;14.25;8.88;;;30.40;64.10;;;;;;4676293;30;20059;-85
2022/06/06 13:50:08;;;;;;;11.38;6.25;;;28.40;61.10;;;;;;4670673;30;20061;-90
2022/06/06 13:58:51;;;;;;;11.15;5.40;;;29.50;61.60;;;;;;4816528;29;20057;-93
2022/06/06 14:01:31;;;;;;;8.02;4.90;;;29.60;62.10;;;;;;4814724;29;20022;-82
2022/06/06 14:04:25;;;;;;;11.40;4.85;;;30.00;60.60;;;;;;4797917;29;20022;-89
2022/06/06 14:07:28;;;;;;;11.70;4.60;;;31.10;61.20;;;;;;4797960;29;20030;-88
2022/06/06 14:09:59;;;;;;;;;;;31.10;59.60;;;;;;4813507;29;20061;-82
2022/06/06 14:12:57;;;;;;;10.38;4.97;;;32.00;57.70;;;;;;4798639;29;19982;-87
2022/06/06 14:15:25;;;;;;;10.10;5.03;;;32.60;57.10;;;;;;4798467;29;20023;-87
2022/06/06 14:18:07;;;;;;;8.10;4.72;;;32.50;56.70;;;;;;4817512;29;20033;-91
2022/06/06 14:21:03;;;;;;;9.80;4.30;;;32.50;56.40;;;;;;4795146;29;20045;-89
2022/06/06 14:23:43;;;;;;;10.40;4.28;;;33.00;56.60;;;;;;4822298;29;20063;-80
2022/06/06 14:26:13;;;;;;;10.00;5.13;;;32.80;56.10;;;;;;4827228;29;20018;-80
2022/06/06 14:35:35;;;;;;;10.43;4.70;;;33.80;55.20;;;;;;4837197;29;20033;-80
2022/06/06 14:38:38;;;;;;;7.82;3.95;;;32.20;55.80;;;;;;4822724;29;20034;-91
2022/06/06 14:41:09;;;;;;;9.27;4.05;;;31.50;56.70;;;;;;4816882;29;20646;-91
2022/06/06 14:43:54;;;;;;;11.02;4.20;;;30.80;58.90;;;;;;4816832;29;20033;-92
2022/06/06 14:46:21;;;;;;;9.65;5.32;;;30.40;59.20;;;;;;4817016;29;20055;-91
2022/06/06 14:48:54;;;;;;;10.23;4.47;;;30.10;60.00;;;;;;4816593;29;20066;-83
2022/06/06 14:51:32;;;;;;;9.82;4.80;;;30.00;60.50;;;;;;4819938;29;20130;-88
2022/06/06 14:54:03;;;;;;;10.68;4.88;;;30.00;60.50;;;;;;4790999;29;20054;-86
2022/06/06 14:56:36;;;;;;;10.68;4.50;;;29.50;61.10;;;;;;4834438;29;20321;-79
2022/06/06 14:59:11;;;;;;;11.35;4.25;;;29.20;61.30;;;;;;4819067;29;20031;-87
2022/06/06 15:01:40;;;;;;;9.15;4.53;;;28.90;61.30;;;;;;4828101;29;20175;-77
2022/06/06 15:04:27;;;;;;;10.27;5.03;;;28.60;62.40;;;;;;4826540;29;20034;-86
2022/06/06 15:06:57;;;;;;;10.25;4.53;;;28.20;64.30;;;;;;4813408;29;20023;-91
2022/06/06 15:09:31;;;;;;;13.05;5.05;;;28.00;65.10;;;;;;4829020;29;20074;-89
2022/06/06 15:11:58;;;;;;;10.88;5.22;;;27.50;65.90;;;;;;4814123;29;20042;-83
2022/06/06 15:14:31;;;;;;;7.95;4.20;;;27.20;66.80;;;;;;4828329;29;20057;-80
2022/06/06 15:16:59;;;;;;;12.10;5.55;;;26.90;67.40;;;;;;4828393;29;20757;-81
2022/06/06 15:19:39;;;;;;;10.60;5.28;;;26.70;68.00;;;;;;4813631;29;20022;-83
2022/06/06 15:22:08;;;;;;;9.80;4.80;;;26.20;69.10;;;;;;4827165;29;20122;-81
2022/06/06 15:24:43;;;;;;;10.13;5.22;;;26.00;69.70;;;;;;4812742;29;20768;-82
2022/06/06 15:27:57;;;;;;;14.55;5.47;;;25.80;70.00;;;;;;4823642;29;20046;-80
2022/06/06 15:30:48;;;;;;;;;;;23.90;69.30;;;;;;4833008;24;20061;-88
2022/06/06 15:33:15;;;;;;;10.98;5.20;;;;;;;;;;4803669;29;20016;-91
2022/06/06 15:43:06;;;;;;;14.73;5.53;;;25.30;72.60;;;;;;4884929;24;20062;-96
2022/06/06 15:56:38;;;;;;;10.48;6.13;;;24.70;74.60;;;;;;5101317;24;20058;-96
2022/06/06 15:59:48;;;;;;;;;;;;;;;;;;;;;
2022/06/06 16:02:53;;;;;;;9.82;4.90;;;25.30;76.80;;;;;;4806022;29;20103;-91
2022/06/06 16:05:40;;;;;;;11.93;5.28;;;25.20;75.20;;;;;;4809309;29;20528;-90
2022/06/06 16:08:30;;;;;;;9.68;5.82;;;24.60;75.60;;;;;;4807001;29;20114;-94
2022/06/06 16:11:31;;;;;;;10.73;5.40;;;24.50;76.00;;;;;;4800149;29;20035;-95
2022/06/06 16:14:18;;;;;;;15.68;5.50;;;24.50;76.00;;;;;;4796856;29;20032;-92
2022/06/06 16:16:59;;;;;;;11.07;5.05;;;24.90;77.00;;;;;;4798555;29;20026;-91
2022/06/06 16:19:47;;;;;;;8.50;4.60;;;24.30;78.40;;;;;;4814413;29;20078;-90
2022/06/06 16:22:35;;;;;;;11.23;5.65;;;24.10;77.70;;;;;;4810596;29;20056;-81
2022/06/06 16:25:16;;;;;;;10.43;5.38;;;24.10;77.70;;;;;;4798586;29;20034;-81
2022/06/06 16:28:04;;;;;;;10.18;5.18;;;23.90;78.10;;;;;;4816272;29;20086;-86
2022/06/06 16:30:50;;;;;;;15.43;7.00;;;23.90;78.50;;;;;;4814010;29;20034;-86